Crook, Illinois
Current Conditions -  °F | °C
As of 10:35 PM on Saturday 20 Dec 2014 (Local Time) from KFWC Reporting Station
Overcast Overcast  
Wind Chill: 32°   Ceiling: 2700
Heat Index: 32°   Visibility: 10mi
Dew Point: 27°   Wind: 3mph
Humidity: 83%   Direction: 110°ESE
Pressure: 30.28"   Gusts: NA
Location:  38.1018°N, 88.4953°W
Report Text: KFWC 210435Z AUTO 11003KT 10SM OVC027 00/M03 A3028 RMK AO1 T00001026
Loading
Personal Weather Stations






























Interactive Weather Map New forecast layout! Learn more

10-Day Weather Forecast

Advertisements
Track Severe Weather on mobile